• Join FlightAware (Why Join?)
  • Login
  • US Flag 
07:00AM EDT


 

Airport Tracker/Info


-or-


 

Live Flight TrackerFlight Track Log ✈ EJM918 ✈ 24-Jun-2013 ✈ KHPN - KBDL

Flight Track Log - Related Links

Times and Time Zones

All times are in EDT time to prevent confusion due to time zone crossing. See the EJM918 flight status page for this flight to view local times or setup timezone preferences in your user account.

Time Position Orientation Groundspeed Altitude Reporting Facility
EDT Latitude Longitude Course Direction KTS MPH feet Rate Location/Type
12:26PM 41.1066 -73.8013 298° West 237 273 6,300  Level FlightAware ADS-B
12:26PM 41.1099 -73.8063 311° West 247 284 6,500 1,800 Climbing FlightAware ADS-B
12:27PM 41.1610 -73.8220 347° North 279 321 7,900 3,060 Climbing FlightAware
12:27PM 41.1770 -73.7810 63° Northeast 306 352 9,800 3,240 Climbing FlightAware
12:28PM 41.1950 -73.7450 56° Northeast 333 383 9,900 120 Climbing FlightAware
12:28PM 41.2190 -73.7000 55° Northeast 364 419 9,900  Level FlightAware
12:30PM 41.3170 -73.5330 52° Northeast 378 435 9,900  Level FlightAware
12:30PM 41.3570 -73.4790 45° Northeast 377 434 9,900  Level FlightAware
12:31PM 41.3940 -73.4300 45° Northeast 377 434 9,900  Level FlightAware
12:31PM 41.4190 -73.3960 46° Northeast 377 434 9,900  Level FlightAware
12:32PM 41.4440 -73.3630 45° Northeast 377 434 9,900 60 Level FlightAware
12:32PM 41.5075 -73.2772 45° Northeast 380 437 10,000 60 Climbing Boston Center
12:33PM 41.5958 -73.1314 51° Northeast 387 445 10,100 -120 Climbing Boston Center
12:35PM 41.6550 -72.9958 60° Northeast 323 372 9,800 -1,080 Descending Boston Center
12:36PM 41.6992 -72.8989 59° Northeast 299 344 7,800 -1,920 Descending Boston Center
12:37PM 41.7350 -72.8183 59° Northeast 297 342 6,200 -1,500 Descending Boston Center
12:38PM 41.7644 -72.7211 68° East 265 305 4,900 -1,320 Descending Boston Center
12:39PM 41.7750 -72.6461 79° East 238 274 3,700 -900 Descending Boston Center
12:40PM 41.7875 -72.5681 78° East 202 232 3,200 -600 Descending Boston Center
12:42PM 41.8647 -72.5933 346° North 170 196 1,900 -720 Descending Boston Center
12:43PM 41.8958 -72.6408 311° West 158 182 1,000 -720 Descending Boston Center
12:44PM 41.9228 -72.6744 317° Northwest 126 145 400 -600 Descending Boston Center
12:46PM 41.9333 -72.6833 45° Northeast  Level FlightAware Approximate